Time;durP1;ratioP1;P1;durP2;ratioP2;P2;SDS_P1;SDS_P2;PMS_P1;PMS_P2;Temp;Humidity;BMP_temperature;BMP_pressure;BME280_temperature;BME280_humidity;BME280_pressure;Samples;Min_cycle;Max_cycle;Signal;HPM_P1;HPM_P2
2022/11/21 00:01:12;;;;;;;2.45;2.25;;;;;;;4.21;62.14;99341.12;4392641;32;34747;-86
2022/11/21 00:03:40;;;;;;;0.80;0.80;;;;;;;4.19;62.33;99338.56;4393257;32;33065;-86
2022/11/21 00:06:08;;;;;;;1.35;1.25;;;;;;;4.15;62.57;99321.22;4392871;32;33222;-85
2022/11/21 00:08:35;;;;;;;3.10;2.85;;;;;;;4.43;61.43;99325.75;4389376;32;32973;-85
2022/11/21 00:11:03;;;;;;;2.67;1.62;;;;;;;4.36;61.08;99320.66;4395838;32;33612;-85
2022/11/21 00:13:30;;;;;;;1.83;1.73;;;;;;;4.23;62.02;99298.38;4395953;32;32567;-85
2022/11/21 00:16:06;;;;;;;4.28;2.00;;;;;;;3.88;63.00;99306.22;4388536;32;33743;-85
2022/11/21 00:18:34;;;;;;;1.55;1.45;;;;;;;3.84;63.19;99306.31;4393731;32;33890;-85
2022/11/21 00:21:07;;;;;;;1.25;0.93;;;;;;;3.90;62.79;99307.06;4380731;32;33243;-85
2022/11/21 00:23:34;;;;;;;1.70;1.62;;;;;;;3.92;62.73;99302.66;4370469;32;33534;-85
2022/11/21 00:26:04;;;;;;;6.55;2.17;;;;;;;3.80;62.98;99304.69;4376295;32;32877;-85
2022/11/21 00:28:31;;;;;;;1.42;1.33;;;;;;;3.79;62.70;99292.50;4393103;32;33739;-85
2022/11/21 00:30:59;;;;;;;2.72;1.92;;;;;;;3.93;62.37;99283.47;4393150;32;33390;-85
2022/11/21 00:33:27;;;;;;;2.65;2.42;;;;;;;3.96;61.91;99288.62;4393116;32;33809;-85
2022/11/21 00:35:54;;;;;;;1.42;1.37;;;;;;;3.85;62.31;99281.94;4380673;32;32904;-86
2022/11/21 00:38:23;;;;;;;0.98;0.98;;;;;;;3.87;62.48;99275.78;4392809;32;33808;-87
2022/11/21 00:40:50;;;;;;;0.82;0.82;;;;;;;3.99;61.84;99280.72;4392920;32;33663;-88
2022/11/21 00:43:18;;;;;;;1.05;0.98;;;;;;;3.84;62.09;99280.19;4393126;32;33459;-87
2022/11/21 00:45:45;;;;;;;0.70;0.70;;;;;;;3.85;62.42;99265.41;4384255;32;32584;-87
2022/11/21 00:48:13;;;;;;;0.37;0.37;;;;;;;3.92;61.91;99266.09;4395753;32;33769;-87
2022/11/21 00:50:40;;;;;;;1.87;1.77;;;;;;;3.82;61.76;99266.31;4383145;32;34282;-89
2022/11/21 00:53:08;;;;;;;;;;;;;;;3.72;62.23;99279.66;4395845;32;33069;-89
2022/11/21 00:55:36;;;;;;;0.57;0.57;;;;;;;3.62;62.38;99288.59;4421132;32;32158;-88
2022/11/21 00:58:03;;;;;;;0.60;0.52;;;;;;;3.50;62.70;99289.72;4382984;32;32779;-88
2022/11/21 01:00:31;;;;;;;5.10;2.47;;;;;;;3.43;63.54;99296.00;4383032;32;33315;-87
2022/11/21 01:03:00;;;;;;;1.80;1.70;;;;;;;3.42;64.25;99295.16;4382669;32;33083;-87
2022/11/21 01:05:27;;;;;;;0.32;0.32;;;;;;;3.49;63.77;99290.63;4395668;32;32544;-88
2022/11/21 01:07:55;;;;;;;0.75;0.75;;;;;;;3.47;63.99;99282.00;4383100;32;32443;-89
2022/11/21 01:10:22;;;;;;;0.28;0.28;;;;;;;3.68;63.37;99273.62;4395578;32;34792;-87
2022/11/21 01:12:50;;;;;;;4.78;1.87;;;;;;;3.67;63.02;99277.16;4394875;32;34674;-88
2022/11/21 01:15:17;;;;;;;2.45;2.05;;;;;;;3.55;63.23;99267.84;4395510;32;33100;-87
2022/11/21 01:17:45;;;;;;;0.80;0.75;;;;;;;3.53;63.25;99263.56;4395593;32;34463;-87
2022/11/21 01:20:13;;;;;;;5.32;0.77;;;;;;;3.54;63.42;99265.28;4395276;32;33034;-86
2022/11/21 01:22:41;;;;;;;1.15;1.12;;;;;;;3.78;62.77;99261.22;4395031;32;33390;-87
2022/11/21 01:25:08;;;;;;;2.17;1.90;;;;;;;3.79;62.55;99257.69;4395541;32;32054;-87
2022/11/21 01:27:36;;;;;;;2.20;2.08;;;;;;;3.74;62.69;99257.81;4395693;32;34443;-86
2022/11/21 01:30:04;;;;;;;2.22;2.10;;;;;;;3.58;63.38;99256.47;4395382;32;33518;-86
2022/11/21 01:32:31;;;;;;;3.95;2.95;;;;;;;3.55;63.92;99251.31;4395415;32;35069;-86
2022/11/21 01:34:59;;;;;;;0.60;0.60;;;;;;;3.58;64.14;99261.69;4395422;32;34041;-86
2022/11/21 01:37:27;;;;;;;0.75;0.75;;;;;;;3.65;63.27;99258.03;4378321;32;33473;-89
2022/11/21 01:39:54;;;;;;;1.90;1.75;;;;;;;3.63;63.48;99262.44;4353312;32;32971;-89
2022/11/21 01:42:22;;;;;;;0.40;0.40;;;;;;;3.54;63.86;99260.91;4353358;32;33308;-90
2022/11/21 01:44:53;;;;;;;1.80;1.75;;;;;;;3.70;63.00;99260.53;4365939;32;33851;-89
2022/11/21 01:47:21;;;;;;;1.73;1.62;;;;;;;3.85;62.42;99253.19;4353172;32;33528;-90
2022/11/21 01:49:50;;;;;;;1.70;1.60;;;;;;;3.55;63.10;99264.38;4353048;32;33383;-86
2022/11/21 01:52:28;;;;;;;2.58;2.37;;;;;;;3.42;63.70;99268.16;4365681;32;34010;-86
2022/11/21 01:55:04;;;;;;;2.42;2.12;;;;;;;3.53;62.99;99259.19;4365284;32;33562;-86
2022/11/21 01:57:44;;;;;;;0.20;0.20;;;;;;;3.50;63.23;99253.19;4365325;32;33753;-86
2022/11/21 02:00:22;;;;;;;1.37;1.27;;;;;;;3.61;62.79;99261.63;4365126;32;34153;-84
2022/11/21 02:02:52;;;;;;;0.88;0.88;;;;;;;3.65;62.48;99251.94;4393365;32;33205;-85
2022/11/21 02:05:29;;;;;;;2.55;1.10;;;;;;;3.67;62.21;99251.03;4380309;32;33638;-85
2022/11/21 02:08:01;;;;;;;1.10;1.10;;;;;;;3.74;61.73;99252.59;4380054;32;32718;-85
2022/11/21 02:10:29;;;;;;;;;;;;;;;3.62;61.77;99252.91;4392970;32;34662;-86
2022/11/21 02:12:57;;;;;;;0.00;0.00;;;;;;;3.56;61.85;99253.91;4392762;32;34231;-88
2022/11/21 02:15:27;;;;;;;2.92;2.17;;;;;;;3.62;61.84;99252.06;4380371;32;33312;-87
2022/11/21 02:17:55;;;;;;;3.10;2.90;;;;;;;3.51;62.48;99249.66;4380153;32;33696;-87
2022/11/21 02:20:25;;;;;;;1.87;1.77;;;;;;;3.40;62.69;99246.47;4367469;32;33147;-85
2022/11/21 02:22:58;;;;;;;1.37;1.27;;;;;;;3.59;62.32;99248.59;4380036;32;34478;-85
2022/11/21 02:25:31;;;;;;;1.17;1.15;;;;;;;3.53;62.60;99245.28;4400818;32;34027;-85
2022/11/21 02:28:01;;;;;;;0.75;0.75;;;;;;;3.25;63.20;99243.31;4394997;32;34508;-86
2022/11/21 02:30:30;;;;;;;1.50;1.40;;;;;;;3.54;62.52;99249.62;4392095;32;33339;-86
2022/11/21 02:32:58;;;;;;;0.50;0.50;;;;;;;3.54;62.38;99249.62;4367084;32;32924;-86
2022/11/21 02:35:26;;;;;;;2.65;2.47;;;;;;;3.34;62.75;99239.66;4379618;32;32599;-86
2022/11/21 02:37:57;;;;;;;1.73;1.62;;;;;;;3.44;62.73;99245.50;4380075;32;34601;-86
2022/11/21 02:40:29;;;;;;;0.70;0.70;;;;;;;3.37;63.00;99238.69;4379774;32;32963;-86
2022/11/21 02:43:07;;;;;;;0.85;0.85;;;;;;;3.38;63.00;99232.63;4379866;32;34054;-86
2022/11/21 02:45:43;;;;;;;0.32;0.32;;;;;;;3.27;63.37;99241.53;4379760;32;32730;-85
2022/11/21 02:48:11;;;;;;;3.95;3.03;;;;;;;3.41;62.92;99241.22;4379886;32;32952;-86
2022/11/21 02:50:41;;;;;;;1.65;1.55;;;;;;;3.40;62.47;99239.50;4367174;32;34225;-85
2022/11/21 02:53:12;;;;;;;1.00;0.68;;;;;;;3.40;62.53;99242.09;4379596;32;32848;-86
2022/11/21 02:55:40;;;;;;;0.35;0.35;;;;;;;3.52;62.04;99244.44;4379675;32;34308;-86
2022/11/21 02:58:08;;;;;;;1.55;1.45;;;;;;;3.19;63.10;99240.88;4379864;32;33559;-85
2022/11/21 03:00:38;;;;;;;0.82;0.65;;;;;;;3.48;62.55;99244.53;4379539;32;34589;-86
2022/11/21 03:03:06;;;;;;;0.43;0.43;;;;;;;3.28;63.05;99242.41;4379664;32;34050;-86
2022/11/21 03:05:33;;;;;;;0.57;0.57;;;;;;;3.32;62.90;99244.91;4379518;32;34023;-86
2022/11/21 03:08:01;;;;;;;0.40;0.40;;;;;;;3.35;62.24;99249.19;4366676;32;34086;-86
2022/11/21 03:10:29;;;;;;;2.33;2.12;;;;;;;3.28;62.02;99248.47;4367259;32;35298;-86
2022/11/21 03:13:02;;;;;;;2.17;1.65;;;;;;;3.13;62.76;99243.59;4367090;32;32392;-86
2022/11/21 03:15:32;;;;;;;0.20;0.20;;;;;;;3.10;62.96;99246.28;4367692;32;33034;-86
2022/11/21 03:18:01;;;;;;;0.80;0.75;;;;;;;3.31;62.30;99237.94;4366915;32;33304;-86
2022/11/21 03:20:30;;;;;;;0.30;0.30;;;;;;;3.38;62.13;99237.84;4379755;32;33846;-86
2022/11/21 03:22:58;;;;;;;1.45;1.20;;;;;;;3.29;62.33;99234.53;4379199;32;32652;-87
2022/11/21 03:25:25;;;;;;;0.52;0.52;;;;;;;3.31;62.06;99230.13;4379589;32;32959;-87
2022/11/21 03:27:54;;;;;;;0.28;0.28;;;;;;;3.34;61.88;99226.59;4379646;32;34534;-87
2022/11/21 03:30:23;;;;;;;3.10;1.62;;;;;;;3.25;62.37;99240.72;4379700;32;34341;-88
2022/11/21 03:32:54;;;;;;;0.88;0.88;;;;;;;3.27;62.36;99231.09;4366750;32;32591;-88
2022/11/21 03:35:22;;;;;;;1.15;1.15;;;;;;;3.31;62.26;99227.50;4380153;32;33989;-88
2022/11/21 03:37:50;;;;;;;1.20;0.98;;;;;;;3.18;62.35;99225.22;4381161;32;32709;-88
2022/11/21 03:40:17;;;;;;;1.08;1.05;;;;;;;3.09;62.80;99223.72;4381152;32;33755;-88
2022/11/21 03:42:45;;;;;;;4.95;1.92;;;;;;;3.28;62.45;99209.34;4381419;32;34010;-88
2022/11/21 03:45:13;;;;;;;1.40;1.30;;;;;;;3.30;62.04;99210.16;4368774;32;32413;-88
2022/11/21 03:47:40;;;;;;;1.87;1.70;;;;;;;3.16;62.11;99212.22;4368542;32;32817;-88
2022/11/21 03:50:09;;;;;;;3.87;2.15;;;;;;;3.21;62.01;99212.97;4368798;32;33175;-87
2022/11/21 03:52:37;;;;;;;0.55;0.55;;;;;;;3.24;61.83;99205.09;4381184;32;33155;-88
2022/11/21 03:55:04;;;;;;;0.80;0.80;;;;;;;3.17;61.81;99211.31;4381140;32;32975;-88
2022/11/21 03:57:32;;;;;;;1.02;1.02;;;;;;;2.98;62.37;99212.62;4368155;32;33362;-88
2022/11/21 04:00:00;;;;;;;1.08;1.08;;;;;;;2.95;62.82;99212.72;4368707;32;33319;-87
2022/11/21 04:02:27;;;;;;;0.50;0.50;;;;;;;3.01;62.58;99207.38;4380883;32;33864;-87
2022/11/21 04:04:55;;;;;;;0.57;0.55;;;;;;;2.81;63.53;99203.44;4380930;32;32987;-87
2022/11/21 04:07:22;;;;;;;0.73;0.73;;;;;;;2.89;63.28;99208.47;4368538;32;32241;-87
2022/11/21 04:09:50;;;;;;;3.33;2.10;;;;;;;2.92;63.70;99197.12;4368392;32;33866;-87
2022/11/21 04:12:18;;;;;;;2.17;0.80;;;;;;;3.05;63.24;99203.81;4368532;32;32716;-88
2022/11/21 04:14:45;;;;;;;0.55;0.55;;;;;;;3.13;62.93;99194.03;4368443;32;33579;-88
2022/11/21 04:17:12;;;;;;;1.33;1.23;;;;;;;3.18;63.11;99189.59;4368458;32;33569;-88
2022/11/21 04:19:40;;;;;;;0.82;0.82;;;;;;;3.22;62.96;99185.97;4368558;32;33446;-88
2022/11/21 04:22:08;;;;;;;0.17;0.17;;;;;;;3.13;62.90;99186.19;4380864;32;33438;-87
2022/11/21 04:24:35;;;;;;;10.45;4.78;;;;;;;3.04;62.89;99184.69;4368370;32;33178;-87
2022/11/21 04:27:03;;;;;;;0.32;0.32;;;;;;;3.04;62.71;99182.06;4368183;32;32679;-87
2022/11/21 04:29:30;;;;;;;0.47;0.47;;;;;;;2.83;63.77;99180.78;4380778;32;34851;-88
2022/11/21 04:31:58;;;;;;;0.10;0.10;;;;;;;2.97;63.62;99174.41;4368396;32;33932;-86
2022/11/21 04:34:26;;;;;;;4.32;3.30;;;;;;;3.12;63.07;99168.84;4380818;32;33294;-87
2022/11/21 04:36:54;;;;;;;0.47;0.47;;;;;;;3.10;63.24;99172.41;4368406;32;32612;-87
2022/11/21 04:39:21;;;;;;;0.55;0.55;;;;;;;3.09;62.96;99166.31;4377971;32;32840;-88
2022/11/21 04:41:49;;;;;;;0.37;0.37;;;;;;;3.08;63.06;99159.38;4396028;32;34061;-88
2022/11/21 04:44:16;;;;;;;2.10;1.95;;;;;;;3.13;62.90;99154.03;4395729;32;33415;-87
2022/11/21 04:46:44;;;;;;;2.17;2.00;;;;;;;3.09;63.03;99145.47;4382764;32;33632;-88
2022/11/21 04:49:12;;;;;;;0.10;0.10;;;;;;;3.20;62.78;99156.47;4395698;32;33800;-87
2022/11/21 04:51:39;;;;;;;2.60;2.15;;;;;;;3.19;62.88;99149.56;4383075;32;32794;-87
2022/11/21 04:54:07;;;;;;;2.58;2.37;;;;;;;3.26;62.56;99140.66;4383124;32;31964;-87
2022/11/21 04:56:35;;;;;;;0.25;0.15;;;;;;;3.24;62.70;99146.84;4395722;32;34266;-87
2022/11/21 04:59:03;;;;;;;1.73;1.62;;;;;;;3.18;63.15;99150.47;4377419;32;32978;-88
2022/11/21 05:01:30;;;;;;;1.48;1.37;;;;;;;3.29;62.76;99155.41;4370685;32;33997;-88
2022/11/21 05:03:58;;;;;;;1.67;1.58;;;;;;;3.23;63.01;99156.41;4395612;32;32910;-87
2022/11/21 05:06:25;;;;;;;0.43;0.43;;;;;;;3.21;63.20;99162.56;4395563;32;33808;-87
2022/11/21 05:08:53;;;;;;;1.52;1.42;;;;;;;3.56;61.79;99159.06;4395504;32;32455;-87
2022/11/21 05:18:23;;;;;;;1.85;1.75;;;;;;;3.18;62.43;99163.50;4407898;32;33242;-88
2022/11/21 05:20:50;;;;;;;1.87;1.00;;;;;;;3.03;63.31;99159.47;4382738;32;35567;-86
2022/11/21 05:23:18;;;;;;;0.43;0.43;;;;;;;3.24;62.56;99152.06;4382804;32;33284;-87
2022/11/21 05:25:45;;;;;;;7.87;3.62;;;;;;;3.18;62.55;99153.06;4377443;32;33125;-87
2022/11/21 05:28:13;;;;;;;2.05;1.95;;;;;;;3.14;62.92;99150.56;4365215;32;35065;-87
2022/11/21 05:30:41;;;;;;;4.95;4.07;;;;;;;3.22;62.75;99151.22;4377848;32;32641;-88
2022/11/21 05:33:08;;;;;;;1.75;1.65;;;;;;;3.20;62.99;99153.00;4377742;32;32432;-87
2022/11/21 05:35:37;;;;;;;2.05;1.95;;;;;;;3.23;63.24;99151.19;4377645;32;32606;-87
2022/11/21 05:38:09;;;;;;;2.53;2.33;;;;;;;3.32;63.36;99153.59;4366124;32;33523;-87
2022/11/21 05:40:37;;;;;;;1.67;1.58;;;;;;;3.32;63.73;99148.37;4365053;32;33421;-89
2022/11/21 05:46:08;;;;;;;2.78;2.58;;;;;;;3.35;63.98;99134.38;4394777;32;32391;-88
2022/11/21 05:48:35;;;;;;;0.62;0.62;;;;;;;3.19;64.64;99130.44;4394765;32;32763;-88
2022/11/21 05:51:03;;;;;;;3.30;3.10;;;;;;;3.37;64.89;99131.72;4383029;32;33303;-90
2022/11/21 05:53:52;;;;;;;1.33;1.10;;;;;;;3.47;64.78;99141.06;4398300;32;33153;-91
2022/11/21 05:56:37;;;;;;;1.23;1.23;;;;;;;3.34;65.61;99156.16;4359375;32;32257;-90
2022/11/21 05:59:29;;;;;;;3.17;1.65;;;;;;;3.43;65.25;99152.47;4364131;32;32737;-89
2022/11/21 06:04:43;;;;;;;1.85;1.75;;;;;;;3.46;65.76;99162.81;4347916;33;34599;-86
2022/11/21 06:07:11;;;;;;;0.98;0.95;;;;;;;3.42;66.93;99169.87;4335502;33;34014;-86
2022/11/21 06:09:38;;;;;;;1.10;1.10;;;;;;;3.53;66.58;99154.78;4341846;32;33934;-87
2022/11/21 06:12:06;;;;;;;3.33;3.12;;;;;;;3.48;66.86;99151.44;4350426;32;34713;-86
2022/11/21 06:14:33;;;;;;;3.15;2.03;;;;;;;3.63;66.93;99144.09;4349979;32;33765;-86
2022/11/21 06:17:01;;;;;;;0.10;0.10;;;;;;;3.85;66.10;99134.81;4348682;32;32056;-87
2022/11/21 06:19:29;;;;;;;0.10;0.10;;;;;;;3.75;66.54;99143.78;4347589;33;34407;-87
2022/11/21 06:21:56;;;;;;;1.90;1.80;;;;;;;3.91;66.45;99139.87;4352675;32;33802;-87
2022/11/21 06:24:25;;;;;;;2.10;1.95;;;;;;;3.89;66.62;99148.63;4357439;32;34579;-87
2022/11/21 06:26:53;;;;;;;1.25;1.25;;;;;;;3.95;66.40;99153.72;4347409;33;33269;-87
2022/11/21 06:29:21;;;;;;;0.55;0.55;;;;;;;3.95;66.31;99156.31;4349158;32;33033;-87
2022/11/21 06:31:49;;;;;;;1.77;1.62;;;;;;;3.74;66.92;99155.97;4337749;32;33407;-87
2022/11/21 06:34:17;;;;;;;0.45;0.45;;;;;;;3.89;66.38;99156.47;4349395;32;32768;-87
2022/11/21 06:36:45;;;;;;;6.07;1.12;;;;;;;3.84;66.96;99169.63;4347059;33;31944;-87
2022/11/21 06:39:12;;;;;;;1.35;1.35;;;;;;;4.05;66.48;99173.44;4352959;32;33739;-86
2022/11/21 06:41:41;;;;;;;0.10;0.10;;;;;;;4.19;65.73;99166.09;4349387;32;35380;-86
2022/11/21 06:44:08;;;;;;;1.98;1.90;;;;;;;4.06;65.90;99168.19;4348018;32;34238;-85
2022/11/21 06:46:36;;;;;;;1.50;1.42;;;;;;;4.06;66.31;99180.38;4334771;32;32562;-85
2022/11/21 06:49:04;;;;;;;0.20;0.20;;;;;;;3.95;66.29;99185.06;4346898;33;34466;-85
2022/11/21 06:51:31;;;;;;;0.30;0.30;;;;;;;4.23;65.75;99178.19;4327194;32;34314;-85
2022/11/21 06:54:01;;;;;;;0.45;0.45;;;;;;;3.85;66.73;99181.81;4347310;33;33914;-86
2022/11/21 06:56:30;;;;;;;0.37;0.37;;;;;;;3.89;66.88;99185.19;4335065;33;32136;-86
2022/11/21 06:59:00;;;;;;;0.10;0.10;;;;;;;3.80;67.85;99194.16;4353250;32;33480;-88
2022/11/21 07:01:28;;;;;;;1.45;0.98;;;;;;;4.15;66.72;99193.19;4342162;32;32815;-88
2022/11/21 07:04:00;;;;;;;2.35;1.17;;;;;;;4.15;66.60;99200.19;4345679;32;33110;-88
2022/11/21 07:06:27;;;;;;;0.57;0.57;;;;;;;4.21;66.77;99195.63;4351117;32;33016;-88
2022/11/21 07:08:55;;;;;;;0.55;0.55;;;;;;;4.10;67.65;99200.31;4345462;32;33020;-88
2022/11/21 07:11:43;;;;;;;0.73;0.70;;;;;;;4.07;67.66;99201.22;4340131;32;32695;-87
2022/11/21 07:14:11;;;;;;;2.10;1.95;;;;;;;4.22;67.54;99197.34;4361184;32;32606;-89
2022/11/21 07:16:38;;;;;;;1.17;0.57;;;;;;;4.32;67.32;99198.81;4334322;32;33193;-89
2022/11/21 07:19:06;;;;;;;1.77;1.40;;;;;;;4.52;66.69;99200.03;4345656;32;33033;-88
2022/11/21 07:21:34;;;;;;;2.37;2.22;;;;;;;4.32;67.31;99197.94;4334313;32;34118;-88
2022/11/21 07:24:02;;;;;;;1.15;1.12;;;;;;;4.47;67.13;99204.53;4358731;32;33926;-88
2022/11/21 07:26:29;;;;;;;0.80;0.80;;;;;;;4.49;66.87;99200.09;4333790;32;32283;-89
2022/11/21 07:28:57;;;;;;;0.73;0.57;;;;;;;4.54;66.68;99203.44;4345756;32;33662;-88
2022/11/21 07:31:25;;;;;;;1.25;1.25;;;;;;;4.54;66.41;99206.03;4333730;32;33663;-88
2022/11/21 07:33:53;;;;;;;1.40;1.33;;;;;;;4.33;67.13;99197.91;4334219;32;33303;-88
2022/11/21 07:36:21;;;;;;;4.78;2.42;;;;;;;4.36;67.12;99200.44;4333928;32;33498;-88
2022/11/21 07:38:49;;;;;;;1.30;1.05;;;;;;;4.41;66.80;99197.69;4345880;32;34255;-88
2022/11/21 07:41:17;;;;;;;1.83;1.73;;;;;;;4.61;66.53;99197.12;4336167;32;33349;-89
2022/11/21 07:43:44;;;;;;;0.85;0.85;;;;;;;4.49;67.12;99189.62;4334355;32;32708;-88
2022/11/21 07:46:12;;;;;;;0.82;0.82;;;;;;;4.20;68.00;99193.06;4353972;32;32035;-88
2022/11/21 07:48:40;;;;;;;0.52;0.52;;;;;;;4.51;67.61;99191.31;4333387;32;33649;-89
2022/11/21 07:51:09;;;;;;;3.12;2.08;;;;;;;4.46;67.95;99192.31;4332573;32;34423;-88
2022/11/21 07:53:36;;;;;;;1.08;1.08;;;;;;;4.62;67.25;99185.78;4336574;32;33657;-88
2022/11/21 07:56:04;;;;;;;1.65;1.55;;;;;;;4.69;67.21;99195.13;4349433;32;32519;-88
2022/11/21 07:58:32;;;;;;;1.08;1.08;;;;;;;4.75;67.41;99196.75;4356802;32;33094;-88
2022/11/21 08:01:04;;;;;;;0.65;0.65;;;;;;;4.82;67.05;99204.34;4344936;32;32666;-88
2022/11/21 08:03:33;;;;;;;3.03;1.65;;;;;;;4.96;67.31;99200.47;4359475;32;33534;-88
2022/11/21 08:06:02;;;;;;;1.40;1.40;;;;;;;5.09;67.04;99202.66;4332740;32;32745;-88
2022/11/21 08:08:30;;;;;;;1.10;0.98;;;;;;;5.17;67.13;99222.47;4356582;32;32845;-88
2022/11/21 08:11:03;;;;;;;1.52;1.42;;;;;;;5.43;66.16;99212.06;4335401;32;32719;-88
2022/11/21 08:13:31;;;;;;;1.20;1.10;;;;;;;5.37;66.50;99215.72;4340439;32;31522;-90
2022/11/21 08:16:03;;;;;;;0.77;0.65;;;;;;;5.43;66.16;99225.16;4351387;32;33486;-90
2022/11/21 08:18:32;;;;;;;1.08;0.40;;;;;;;5.62;66.16;99226.25;4370050;32;32894;-90
2022/11/21 08:21:01;;;;;;;2.35;1.70;;;;;;;5.36;66.62;99224.50;4347650;32;32365;-90
2022/11/21 08:23:49;;;;;;;0.85;0.80;;;;;;;5.32;67.57;99227.25;4356299;32;32799;-90
2022/11/21 08:26:19;;;;;;;0.75;0.75;;;;;;;5.63;66.73;99227.12;4337629;32;33240;-90
2022/11/21 08:28:47;;;;;;;1.25;1.15;;;;;;;5.80;66.42;99227.44;4322196;32;93833;-90
2022/11/21 08:31:15;;;;;;;0.10;0.10;;;;;;;5.75;66.88;99229.34;4350328;32;32984;-91
2022/11/21 08:33:43;;;;;;;1.55;1.48;;;;;;;5.86;66.75;99223.75;4344158;32;32463;-90
2022/11/21 08:36:11;;;;;;;0.90;0.90;;;;;;;6.02;66.26;99229.34;4337295;32;32029;-90
2022/11/21 08:38:39;;;;;;;1.70;1.58;;;;;;;6.02;66.39;99237.19;4338076;32;32323;-90
2022/11/21 08:43:53;;;;;;;1.23;1.12;;;;;;;6.10;66.13;99237.81;4340020;32;34113;-90
2022/11/21 08:46:26;;;;;;;1.40;1.30;;;;;;;6.43;64.85;99235.75;4344231;32;32772;-90
2022/11/21 08:48:54;;;;;;;3.40;2.92;;;;;;;6.02;66.67;99237.19;4345080;32;33597;-90
2022/11/21 08:51:22;;;;;;;2.22;2.12;;;;;;;6.06;66.81;99242.28;4345726;32;32986;-90
2022/11/21 08:53:50;;;;;;;0.70;0.70;;;;;;;6.12;65.74;99236.84;4337666;32;33376;-90
2022/11/21 08:56:18;;;;;;;0.30;0.30;;;;;;;5.88;66.33;99235.84;4344761;32;32553;-90
2022/11/21 08:58:47;;;;;;;0.70;0.70;;;;;;;5.71;66.27;99237.34;4338160;32;32807;-91
2022/11/21 09:01:14;;;;;;;1.30;1.20;;;;;;;5.89;65.57;99227.12;4344056;32;33925;-91
2022/11/21 09:03:42;;;;;;;0.95;0.73;;;;;;;5.72;65.92;99229.44;4336008;32;33106;-90
2022/11/21 09:06:12;;;;;;;0.10;0.10;;;;;;;5.95;65.28;99238.31;4345261;32;33325;-90
2022/11/21 09:08:39;;;;;;;0.10;0.10;;;;;;;6.12;64.68;99239.47;4337746;32;32956;-91
2022/11/21 09:11:08;;;;;;;1.10;0.68;;;;;;;5.76;65.00;99246.75;4349361;32;33873;-90
2022/11/21 09:13:36;;;;;;;0.85;0.85;;;;;;;6.06;63.57;99234.41;4325161;32;32863;-90
2022/11/21 09:18:52;;;;;;;0.37;0.37;;;;;;;5.91;64.09;99232.28;4373017;32;33153;-89
2022/11/21 09:21:20;;;;;;;1.83;1.25;;;;;;;5.75;65.04;99234.59;4349767;32;32613;-88
2022/11/21 09:23:48;;;;;;;0.57;0.57;;;;;;;5.85;64.34;99229.88;4347902;32;33997;-87
2022/11/21 09:26:16;;;;;;;7.25;2.87;;;;;;;5.56;65.08;99229.09;4348798;32;33501;-87
2022/11/21 09:28:44;;;;;;;0.88;0.88;;;;;;;5.67;65.26;99223.50;4336224;32;33410;-87
2022/11/21 09:31:11;;;;;;;0.40;0.40;;;;;;;5.59;65.85;99223.72;4341554;32;34154;-87
2022/11/21 09:33:39;;;;;;;0.10;0.10;;;;;;;6.04;64.03;99224.91;4353775;32;34667;-88
2022/11/21 09:36:07;;;;;;;1.55;1.45;;;;;;;5.90;64.20;99234.06;4359480;32;33956;-88
2022/11/21 09:38:35;;;;;;;2.35;2.25;;;;;;;5.75;64.72;99231.97;4336318;32;32882;-88
2022/11/21 09:44:38;;;;;;;1.70;1.60;;;;;;;5.66;65.36;99229.66;4350860;32;33062;-88
2022/11/21 09:47:21;;;;;;;1.50;1.37;;;;;;;5.59;65.59;99233.34;4341393;32;33312;-88
2022/11/21 09:50:23;;;;;;;2.25;2.05;;;;;;;5.50;65.57;99241.50;4348515;32;31300;-88
2022/11/21 09:53:10;;;;;;;0.35;0.35;;;;;;;5.56;65.96;99241.34;4341556;32;33052;-88
2022/11/21 09:55:44;;;;;;;0.73;0.73;;;;;;;5.74;65.60;99224.13;4349973;32;33782;-88
2022/11/21 09:58:30;;;;;;;0.65;0.65;;;;;;;5.74;65.54;99230.22;4336632;32;33896;-87
2022/11/21 10:00:57;;;;;;;0.62;0.62;;;;;;;5.70;65.61;99226.03;4358689;32;33120;-88
2022/11/21 10:03:28;;;;;;;1.00;1.00;;;;;;;5.93;65.40;99219.16;4364984;32;32989;-89
2022/11/21 10:06:03;;;;;;;2.80;2.35;;;;;;;5.65;65.98;99226.16;4348167;32;33081;-88
2022/11/21 10:08:54;;;;;;;0.50;0.50;;;;;;;5.59;66.50;99217.63;4350093;32;33149;-88
2022/11/21 10:12:35;;;;;;;1.70;1.58;;;;;;;5.62;66.52;99217.56;4366380;32;33696;-88
2022/11/21 10:14:38;;;;;;;1.17;1.17;;;;;;;5.54;67.39;99232.66;4361698;32;34431;-89
2022/11/21 10:17:14;;;;;;;0.57;0.57;;;;;;;5.90;66.50;99213.09;4357982;32;33617;-89
2022/11/21 10:20:23;;;;;;;1.23;1.12;;;;;;;6.45;64.66;99210.31;4359322;32;34049;-89
2022/11/21 10:23:09;;;;;;;1.67;0.57;;;;;;;6.38;64.65;99208.84;4350820;32;32131;-89
2022/11/21 10:25:38;;;;;;;1.52;1.08;;;;;;;6.49;64.81;99203.19;4357824;32;33733;-90
2022/11/21 10:28:18;;;;;;;0.25;0.25;;;;;;;6.43;64.69;99198.19;4336064;32;32941;-85
2022/11/21 10:30:47;;;;;;;1.60;0.70;;;;;;;6.57;64.52;99194.16;4349879;32;33475;-85
2022/11/21 10:33:22;;;;;;;1.50;1.40;;;;;;;6.75;64.31;99186.50;4352413;32;33855;-86
2022/11/21 10:35:53;;;;;;;0.80;0.80;;;;;;;6.90;64.17;99178.91;4323398;32;32987;-86
2022/11/21 10:38:41;;;;;;;0.52;0.52;;;;;;;7.09;63.82;99180.81;4335589;32;33892;-86
2022/11/21 10:41:23;;;;;;;0.62;0.62;;;;;;;7.21;63.83;99169.81;4359320;32;34209;-85
2022/11/21 10:47:28;;;;;;;3.78;0.82;;;;;;;7.18;63.75;99172.56;4292771;33;32426;-85
2022/11/21 10:50:08;;;;;;;1.23;1.17;;;;;;;7.35;62.87;99167.47;4291674;33;33215;-88
2022/11/21 10:52:44;;;;;;;1.05;0.95;;;;;;;7.38;63.19;99156.00;4345608;32;33265;-87
2022/11/21 10:55:14;;;;;;;2.22;0.73;;;;;;;7.37;63.18;99160.41;4351565;32;33726;-87
2022/11/21 10:57:48;;;;;;;1.30;1.20;;;;;;;7.51;62.92;99151.12;4350649;32;33479;-84
2022/11/21 11:00:24;;;;;;;1.52;1.42;;;;;;;7.69;62.65;99153.81;4369745;32;33601;-84
2022/11/21 11:03:03;;;;;;;1.30;1.27;;;;;;;7.81;62.42;99159.47;4359858;32;32908;-85
2022/11/21 11:05:36;;;;;;;0.57;0.57;;;;;;;7.61;63.15;99162.94;4361285;32;31587;-85
2022/11/21 11:08:09;;;;;;;2.90;2.65;;;;;;;7.81;62.18;99162.94;4359957;32;33239;-85
2022/11/21 11:10:38;;;;;;;0.68;0.68;;;;;;;8.09;61.44;99165.25;4334685;32;33004;-85
2022/11/21 11:13:32;;;;;;;1.00;1.00;;;;;;;8.01;61.71;99161.22;4349424;32;32573;-85
2022/11/21 11:16:18;;;;;;;0.52;0.52;;;;;;;8.26;61.20;99155.75;4349645;32;33688;-84
2022/11/21 11:18:56;;;;;;;0.52;0.52;;;;;;;8.05;61.84;99160.19;4360472;32;34602;-85
2022/11/21 11:21:26;;;;;;;1.12;1.08;;;;;;;8.11;61.59;99157.28;4348102;32;33641;-85
2022/11/21 11:24:10;;;;;;;2.10;1.73;;;;;;;8.25;61.14;99148.78;4360645;32;32566;-85
2022/11/21 11:26:47;;;;;;;0.43;0.43;;;;;;;8.12;61.78;99148.50;4348302;32;33719;-85
2022/11/21 11:29:17;;;;;;;1.00;1.00;;;;;;;8.16;61.58;99150.88;4359779;32;32918;-85
2022/11/21 11:31:51;;;;;;;2.28;2.08;;;;;;;8.26;61.50;99139.97;4361526;32;33872;-85
2022/11/21 11:34:19;;;;;;;2.08;1.92;;;;;;;8.28;61.58;99138.97;4347506;32;33948;-84
2022/11/21 11:37:08;;;;;;;1.58;1.48;;;;;;;8.38;61.46;99140.31;4323981;32;32545;-85
2022/11/21 11:39:39;;;;;;;0.93;0.93;;;;;;;8.43;61.51;99132.22;4349261;32;33369;-85
2022/11/21 11:48:14;;;;;;;0.20;0.20;;;;;;;8.82;60.75;99113.69;4346965;32;33073;-85
2022/11/21 11:50:46;;;;;;;1.02;1.00;;;;;;;8.81;60.85;99114.63;4348448;32;33663;-85
2022/11/21 11:53:21;;;;;;;0.62;0.52;;;;;;;8.76;61.33;99108.75;4346793;32;33744;-85
2022/11/21 11:56:05;;;;;;;1.20;1.10;;;;;;;8.93;60.96;99113.22;4354473;32;33216;-85
2022/11/21 11:58:39;;;;;;;1.37;1.30;;;;;;;9.21;60.07;99105.69;4370346;32;33908;-85
2022/11/21 12:01:12;;;;;;;4.12;0.90;;;;;;;9.27;59.71;99095.75;4349764;32;34198;-85
2022/11/21 12:03:44;;;;;;;5.25;2.03;;;;;;;9.08;60.55;99101.94;4349569;32;33322;-85
2022/11/21 12:06:33;;;;;;;0.37;0.37;;;;;;;9.49;59.58;99093.75;4338175;32;33338;-85
2022/11/21 12:09:31;;;;;;;0.93;0.93;;;;;;;9.73;58.88;99086.37;4337786;32;33139;-85
2022/11/21 12:12:25;;;;;;;2.83;1.60;;;;;;;9.47;59.11;99085.94;4362387;32;34634;-85
2022/11/21 12:18:19;;;;;;;0.80;0.80;;;;;;;9.77;57.94;99079.16;4363506;32;33316;-85
2022/11/21 12:20:56;;;;;;;1.52;1.37;;;;;;;9.64;57.99;99073.69;4354080;32;34061;-85
2022/11/21 12:23:30;;;;;;;2.30;2.20;;;;;;;9.42;59.76;99066.84;4361801;32;34026;-85
2022/11/21 12:26:17;;;;;;;0.75;0.75;;;;;;;9.46;nan;99075.47;4361179;32;33423;-85
2022/11/21 12:29:03;;;;;;;5.25;2.87;;;;;;;9.88;58.85;99074.19;4362429;32;33406;-85
2022/11/21 12:31:56;;;;;;;2.72;1.92;;;;;;;9.26;60.67;99078.22;4362734;32;33935;-85
2022/11/21 12:34:56;;;;;;;;;;;;;;;9.48;60.12;99070.97;4367602;32;34349;-85